createdAt,value
2017-06-25T00:00:54.142Z,0
2017-06-25T00:01:54.166Z,0
2017-06-25T00:02:54.187Z,0
2017-06-25T00:03:54.515Z,0
2017-06-25T00:04:54.540Z,0
2017-06-25T00:05:54.567Z,0
2017-06-25T00:07:54.313Z,0
2017-06-25T00:09:08.961Z,0
2017-06-25T00:09:54.363Z,0
2017-06-25T00:10:54.699Z,0
2017-06-25T00:11:54.716Z,0
2017-06-25T00:12:54.743Z,0
2017-06-25T00:13:54.773Z,0
2017-06-25T00:14:54.795Z,0
2017-06-25T00:16:09.439Z,0
2017-06-25T00:16:54.844Z,0
2017-06-25T00:17:54.871Z,0
2017-06-25T00:19:54.920Z,0
2017-06-25T00:20:54.340Z,0
2017-06-25T00:21:54.973Z,0
2017-06-25T00:25:09.669Z,0
2017-06-25T00:25:55.127Z,0
2017-06-25T00:26:54.794Z,0
2017-06-25T00:27:55.125Z,0
2017-06-25T00:28:55.154Z,0
2017-06-25T00:29:55.177Z,0
2017-06-25T00:30:55.204Z,0
2017-06-25T00:32:09.845Z,0
2017-06-25T00:32:55.255Z,0
2017-06-25T00:33:55.273Z,0
2017-06-25T00:35:09.950Z,0
2017-06-25T00:35:55.363Z,0
2017-06-25T00:37:09.972Z,0
2017-06-25T00:39:55.480Z,0
2017-06-25T00:41:10.075Z,0
2017-06-25T00:41:55.480Z,0
2017-06-25T00:42:55.505Z,0
2017-06-25T00:43:55.532Z,0
2017-06-25T00:44:55.559Z,0
2017-06-25T00:45:55.587Z,0
2017-06-25T00:46:55.636Z,0
2017-06-25T00:47:55.635Z,0
2017-06-25T00:48:55.656Z,0
2017-06-25T00:49:55.684Z,0
2017-06-25T00:52:10.354Z,0
2017-06-25T00:52:55.760Z,0
2017-06-25T00:54:10.400Z,0
2017-06-25T00:55:55.531Z,0
2017-06-25T00:57:10.529Z,0
2017-06-25T00:57:55.886Z,0
2017-06-25T00:58:55.915Z,0
2017-06-25T00:59:55.936Z,0
2017-06-25T01:01:10.278Z,0
2017-06-25T01:01:55.992Z,0
2017-06-25T01:02:55.709Z,0
2017-06-25T01:03:55.740Z,0
2017-06-25T01:05:10.682Z,0
2017-06-25T01:05:55.794Z,0
2017-06-25T01:06:55.808Z,0
2017-06-25T01:08:56.165Z,0
2017-06-25T01:09:56.191Z,0
2017-06-25T01:10:56.216Z,0
2017-06-25T01:12:10.859Z,0
2017-06-25T01:12:56.267Z,0
2017-06-25T01:13:56.289Z,0
2017-06-25T01:14:56.317Z,0
2017-06-25T01:15:56.345Z,0
2017-06-25T01:16:56.369Z,0
2017-06-25T01:17:56.090Z,0
2017-06-25T01:18:56.419Z,0
2017-06-25T01:19:56.446Z,0
2017-06-25T01:20:56.163Z,0
2017-06-25T01:21:56.493Z,0
2017-06-25T01:22:56.522Z,0
2017-06-25T01:23:56.542Z,0
2017-06-25T01:26:56.625Z,0
2017-06-25T01:27:56.646Z,0
2017-06-25T01:30:11.321Z,0
2017-06-25T01:30:56.798Z,0
2017-06-25T01:31:56.748Z,0
2017-06-25T01:32:56.773Z,0
2017-06-25T01:34:11.419Z,0
2017-06-25T01:35:11.441Z,0
2017-06-25T01:35:56.852Z,0
2017-06-25T01:37:11.493Z,0
2017-06-25T01:37:56.596Z,0
2017-06-25T01:39:11.546Z,0
2017-06-25T01:40:11.565Z,0
2017-06-25T01:40:56.976Z,0
2017-06-25T01:42:57.027Z,0
2017-06-25T01:44:11.667Z,0
2017-06-25T01:44:57.078Z,0
2017-06-25T01:45:57.104Z,0
2017-06-25T01:46:57.130Z,0
2017-06-25T01:47:57.153Z,0
2017-06-25T01:48:56.873Z,0
2017-06-25T01:49:57.208Z,0
2017-06-25T01:50:56.929Z,0
2017-06-25T01:52:11.871Z,0
2017-06-25T01:52:57.282Z,0
2017-06-25T01:53:57.000Z,0
2017-06-25T01:54:57.332Z,0
2017-06-25T01:56:57.382Z,0
2017-06-25T01:57:57.412Z,0
2017-06-25T01:58:57.430Z,0
2017-06-25T02:00:12.073Z,0
2017-06-25T02:00:57.485Z,0
2017-06-25T02:01:57.508Z,0
2017-06-25T02:02:57.533Z,0
2017-06-25T02:03:57.253Z,0
2017-06-25T02:05:12.203Z,0
2017-06-25T02:06:12.228Z,0
2017-06-25T02:06:57.633Z,0
2017-06-25T02:07:57.662Z,0
2017-06-25T02:09:12.300Z,0
2017-06-25T02:09:57.414Z,4
2017-06-25T02:10:57.736Z,4
2017-06-25T02:11:57.760Z,4
2017-06-25T02:12:57.785Z,0
2017-06-25T02:14:57.837Z,4
2017-06-25T02:16:12.491Z,4
2017-06-25T02:16:57.888Z,4
2017-06-25T02:17:57.912Z,0
2017-06-25T02:18:57.937Z,4
2017-06-25T02:19:57.962Z,4
2017-06-25T02:20:57.984Z,4
2017-06-25T02:21:58.016Z,8
2017-06-25T02:22:58.041Z,4
2017-06-25T02:23:58.060Z,8
2017-06-25T02:24:58.092Z,8
2017-06-25T02:25:58.115Z,8
2017-06-25T02:26:58.138Z,12
2017-06-25T02:28:12.778Z,12
2017-06-25T02:29:12.504Z,12
2017-06-25T02:29:58.217Z,12
2017-06-25T02:30:58.246Z,12
2017-06-25T02:32:12.892Z,16
2017-06-25T02:32:58.290Z,16
2017-06-25T02:33:58.320Z,16
2017-06-25T02:34:58.035Z,24
2017-06-25T02:35:58.368Z,20
2017-06-25T02:36:58.394Z,24
2017-06-25T02:37:58.412Z,28
2017-06-25T02:39:13.061Z,28
2017-06-25T02:39:58.164Z,28
2017-06-25T02:40:58.496Z,28
2017-06-25T02:41:57.909Z,32
2017-06-25T02:42:58.540Z,28
2017-06-25T02:43:58.567Z,32
2017-06-25T02:45:58.316Z,32
2017-06-25T02:47:13.261Z,32
2017-06-25T02:47:58.669Z,36
2017-06-25T02:48:58.693Z,44
2017-06-25T02:49:58.722Z,44
2017-06-25T02:50:58.746Z,48
2017-06-25T02:51:58.770Z,52
2017-06-25T02:52:58.796Z,52
2017-06-25T02:53:58.820Z,48
2017-06-25T02:54:58.850Z,52
2017-06-25T02:55:58.871Z,52
2017-06-25T02:56:58.897Z,56
2017-06-25T02:57:58.920Z,64
2017-06-25T02:59:13.565Z,72
2017-06-25T02:59:58.976Z,80
2017-06-25T03:00:58.997Z,92
2017-06-25T03:01:59.022Z,104
2017-06-25T03:02:58.745Z,112
2017-06-25T03:03:59.073Z,124
2017-06-25T03:04:58.492Z,128
2017-06-25T03:05:58.819Z,140
2017-06-25T03:06:59.151Z,156
2017-06-25T03:07:59.174Z,168
2017-06-25T03:08:59.196Z,180
2017-06-25T03:09:59.226Z,192
2017-06-25T03:11:13.867Z,220
2017-06-25T03:12:13.892Z,256
2017-06-25T03:12:59.297Z,284
2017-06-25T03:13:59.325Z,300
2017-06-25T03:14:59.044Z,304
2017-06-25T03:16:13.990Z,292
2017-06-25T03:16:59.407Z,280
2017-06-25T03:17:59.120Z,280
2017-06-25T03:19:14.068Z,288
2017-06-25T03:19:59.478Z,292
2017-06-25T03:20:59.196Z,288
2017-06-25T03:21:59.225Z,272
2017-06-25T03:22:58.944Z,276
2017-06-25T03:23:59.267Z,312
2017-06-25T03:24:59.296Z,352
2017-06-25T03:25:59.328Z,360
2017-06-25T03:27:14.267Z,336
2017-06-25T03:27:59.374Z,344
2017-06-25T03:28:59.396Z,364
2017-06-25T03:31:14.064Z,332
2017-06-25T03:32:59.805Z,296
2017-06-25T03:33:59.827Z,312
2017-06-25T03:35:14.521Z,344
2017-06-25T03:35:59.876Z,392
2017-06-25T03:36:59.902Z,432
2017-06-25T03:37:59.925Z,416
2017-06-25T03:38:59.955Z,388
2017-06-25T03:39:59.978Z,376
2017-06-25T03:41:14.621Z,340
2017-06-25T03:42:00.029Z,336
2017-06-25T03:43:14.669Z,304
2017-06-25T03:44:14.695Z,256
2017-06-25T03:45:00.102Z,236
2017-06-25T03:46:00.128Z,244
2017-06-25T03:47:14.770Z,276
2017-06-25T03:48:00.179Z,284
2017-06-25T03:50:00.229Z,348
2017-06-25T03:51:14.868Z,276
2017-06-25T03:52:00.277Z,244
2017-06-25T03:53:00.300Z,256
2017-06-25T03:54:00.362Z,316
2017-06-25T03:55:00.355Z,340
2017-06-25T03:56:00.377Z,372
2017-06-25T03:57:00.405Z,420
2017-06-25T03:58:15.046Z,424
2017-06-25T03:59:15.071Z,388
2017-06-25T04:00:15.093Z,376
2017-06-25T04:01:00.504Z,416
2017-06-25T04:03:00.553Z,612
2017-06-25T04:04:00.589Z,584
2017-06-25T04:04:59.995Z,552
2017-06-25T04:06:00.322Z,504
2017-06-25T04:07:14.966Z,436
2017-06-25T04:08:00.682Z,428
2017-06-25T04:09:00.699Z,452
2017-06-25T04:10:00.725Z,512
2017-06-25T04:11:00.447Z,584
2017-06-25T04:12:00.474Z,652
2017-06-25T04:13:15.118Z,680
2017-06-25T04:14:00.827Z,708
2017-06-25T04:15:00.851Z,612
2017-06-25T04:16:15.494Z,592
2017-06-25T04:17:00.904Z,620
2017-06-25T04:18:15.542Z,644
2017-06-25T04:19:00.955Z,700
2017-06-25T04:21:00.698Z,644
2017-06-25T04:22:15.645Z,652
2017-06-25T04:23:00.748Z,704
2017-06-25T04:24:01.080Z,748
2017-06-25T04:25:01.155Z,708
2017-06-25T04:26:00.824Z,764
2017-06-25T04:27:00.848Z,968
2017-06-25T04:28:00.870Z,1212
2017-06-25T04:29:01.203Z,1156
2017-06-25T04:30:01.228Z,1168
2017-06-25T04:31:00.949Z,1312
2017-06-25T04:32:15.891Z,1616
2017-06-25T04:34:01.326Z,1688
2017-06-25T04:35:00.742Z,1620
2017-06-25T04:36:01.429Z,1552
2017-06-25T04:38:01.431Z,1316
2017-06-25T04:39:01.149Z,1276
2017-06-25T04:40:01.478Z,1240
2017-06-25T04:41:01.504Z,1252
2017-06-25T04:42:01.525Z,1400
2017-06-25T04:43:01.557Z,1572
2017-06-25T04:44:01.574Z,1896
2017-06-25T04:45:16.218Z,2416
2017-06-25T04:46:01.625Z,2304
2017-06-25T04:47:16.268Z,2504
2017-06-25T04:48:01.682Z,2248
2017-06-25T04:49:16.322Z,2004
2017-06-25T04:50:16.341Z,2156
2017-06-25T04:51:16.369Z,2916
2017-06-25T04:52:01.471Z,2812
2017-06-25T04:53:01.803Z,2760
2017-06-25T04:54:16.137Z,2200
2017-06-25T04:55:01.555Z,2012
2017-06-25T04:56:01.883Z,2344
2017-06-25T04:57:01.952Z,2592
2017-06-25T04:58:01.627Z,2684
2017-06-25T04:59:01.952Z,2888
2017-06-25T05:00:01.979Z,2720
2017-06-25T05:01:02.000Z,2548
2017-06-25T05:02:02.024Z,2480
2017-06-25T05:04:01.775Z,2996
2017-06-25T05:05:01.802Z,3056
2017-06-25T05:06:01.877Z,2860
2017-06-25T05:07:02.154Z,2656
2017-06-25T05:08:01.877Z,3348
2017-06-25T05:10:16.846Z,3120
2017-06-25T05:11:02.255Z,3160
2017-06-25T05:12:01.974Z,3008
2017-06-25T05:14:02.333Z,2628
2017-06-25T05:15:02.354Z,2104
2017-06-25T05:16:16.998Z,1924
2017-06-25T05:17:02.402Z,1892
2017-06-25T05:18:17.048Z,2036
2017-06-25T05:19:02.458Z,1988
2017-06-25T05:20:16.792Z,2228
2017-06-25T05:21:02.509Z,2556
2017-06-25T05:22:02.531Z,3040
2017-06-25T05:23:02.562Z,3248
2017-06-25T05:24:02.580Z,3208
2017-06-25T05:25:02.305Z,3372
2017-06-25T05:26:16.945Z,3636
2017-06-25T05:27:02.661Z,3148
2017-06-25T05:28:02.682Z,2984
2017-06-25T05:29:02.709Z,3212
2017-06-25T05:30:02.733Z,3496
2017-06-25T05:31:02.760Z,3056
2017-06-25T05:32:02.785Z,2688
2017-06-25T05:33:02.813Z,2676
2017-06-25T05:34:02.836Z,2456
2017-06-25T05:35:02.858Z,2236
2017-06-25T05:36:17.501Z,2636
2017-06-25T05:37:02.910Z,2800
2017-06-25T05:38:02.938Z,3004
2017-06-25T05:39:02.962Z,2956
2017-06-25T05:40:03.015Z,2784
2017-06-25T05:41:03.016Z,2736
2017-06-25T05:42:17.654Z,2424
2017-06-25T05:43:03.066Z,2528
2017-06-25T05:44:03.089Z,2828
2017-06-25T05:45:03.111Z,2964
2017-06-25T05:46:03.148Z,2992
2017-06-25T05:47:03.170Z,2824
2017-06-25T05:48:03.189Z,2500
2017-06-25T05:49:03.223Z,2256
2017-06-25T05:50:17.858Z,2292
2017-06-25T05:51:17.884Z,2396
2017-06-25T05:52:02.989Z,2572
2017-06-25T05:53:03.014Z,2888
2017-06-25T05:55:03.386Z,3460
2017-06-25T05:56:03.094Z,3616
2017-06-25T05:57:18.037Z,3784
2017-06-25T05:58:03.447Z,3708
2017-06-25T05:59:03.167Z,3640
2017-06-25T06:00:03.193Z,3668
2017-06-25T06:01:03.224Z,3764
2017-06-25T06:02:03.245Z,3924
2017-06-25T06:03:03.577Z,4032
2017-06-25T06:04:03.603Z,3776
2017-06-25T06:05:03.625Z,3280
2017-06-25T06:06:03.347Z,2876
2017-06-25T06:07:03.376Z,2744
2017-06-25T06:08:03.701Z,2800
2017-06-25T06:09:03.723Z,2756
2017-06-25T06:10:03.765Z,2732
2017-06-25T06:12:03.807Z,3020
2017-06-25T06:13:03.831Z,3188
2017-06-25T06:14:03.851Z,2912
2017-06-25T06:15:03.880Z,2744
2017-06-25T06:16:03.907Z,2760
2017-06-25T06:17:03.928Z,2968
2017-06-25T06:18:03.955Z,3148
2017-06-25T06:19:03.984Z,3304
2017-06-25T06:20:04.027Z,3376
2017-06-25T06:21:04.052Z,3352
2017-06-25T06:22:04.085Z,3304
2017-06-25T06:23:04.096Z,3408
2017-06-25T06:24:04.129Z,3660
2017-06-25T06:25:04.150Z,3292
2017-06-25T06:26:04.187Z,3260
2017-06-25T06:27:04.190Z,3512
2017-06-25T06:28:04.214Z,3736
2017-06-25T06:29:18.853Z,4428
2017-06-25T06:30:04.266Z,4280
2017-06-25T06:31:04.294Z,4032
2017-06-25T06:32:04.036Z,3696
2017-06-25T06:33:04.360Z,3356
2017-06-25T06:34:04.367Z,3408
2017-06-25T06:35:04.392Z,3432
2017-06-25T06:36:04.723Z,4100
2017-06-25T06:37:04.446Z,4788
2017-06-25T06:38:04.474Z,5360
2017-06-25T06:39:04.497Z,5504
2017-06-25T06:40:19.136Z,5108
2017-06-25T06:41:04.549Z,4844
2017-06-25T06:42:04.270Z,4172
2017-06-25T06:43:04.596Z,3748
2017-06-25T06:44:04.629Z,3176
2017-06-25T06:45:19.265Z,2640
2017-06-25T06:46:04.677Z,2768
2017-06-25T06:47:04.703Z,2780
2017-06-25T06:48:04.730Z,3072
2017-06-25T06:49:04.760Z,3500
2017-06-25T06:50:04.478Z,3476
2017-06-25T06:51:04.808Z,3316
2017-06-25T06:52:04.527Z,3384
2017-06-25T06:53:19.473Z,3464
2017-06-25T06:54:04.882Z,3668
2017-06-25T06:55:04.906Z,4048
2017-06-25T06:57:04.956Z,4152
2017-06-25T06:59:05.011Z,4008
2017-06-25T07:00:05.035Z,4116
2017-06-25T07:01:19.376Z,4436
2017-06-25T07:02:05.091Z,4844
2017-06-25T07:03:05.115Z,5704
2017-06-25T07:04:04.839Z,5944
2017-06-25T07:05:04.859Z,6096
2017-06-25T07:06:04.587Z,6492
2017-06-25T07:07:19.532Z,7104
2017-06-25T07:08:05.242Z,7380
2017-06-25T07:09:05.264Z,7600
2017-06-25T07:10:04.990Z,7556
2017-06-25T07:11:05.317Z,7232
2017-06-25T07:12:05.350Z,7092
2017-06-25T07:13:05.369Z,6820
2017-06-25T07:14:05.095Z,6744
2017-06-25T07:15:05.428Z,6380
2017-06-25T07:17:20.096Z,4440
2017-06-25T07:18:05.500Z,4060
2017-06-25T07:19:05.527Z,3948
2017-06-25T07:20:05.249Z,4232
2017-06-25T07:21:20.199Z,5004
2017-06-25T07:22:05.653Z,5532
2017-06-25T07:23:19.946Z,4836
2017-06-25T07:24:05.654Z,4244
2017-06-25T07:25:20.299Z,3936
2017-06-25T07:26:05.713Z,4068
2017-06-25T07:27:05.734Z,4784
2017-06-25T07:28:20.377Z,5340
2017-06-25T07:29:05.487Z,5436
2017-06-25T07:30:05.513Z,5088
2017-06-25T07:31:05.533Z,4204
2017-06-25T07:32:20.486Z,3984
2017-06-25T07:33:05.893Z,4280
2017-06-25T07:34:05.958Z,5124
2017-06-25T07:35:05.947Z,5388
2017-06-25T07:36:05.678Z,5308
2017-06-25T07:37:05.998Z,5436
2017-06-25T07:38:06.019Z,5476
2017-06-25T07:39:06.047Z,5804
2017-06-25T07:40:20.387Z,6688
2017-06-25T07:41:20.716Z,8196
2017-06-25T07:42:06.130Z,9056
2017-06-25T07:45:20.819Z,9096
2017-06-25T07:47:05.651Z,10452
2017-06-25T07:48:06.285Z,11500
2017-06-25T07:49:06.313Z,12364
2017-06-25T07:50:06.336Z,13608
2017-06-25T07:51:06.364Z,15020
2017-06-25T07:52:06.387Z,14816
2017-06-25T07:53:06.417Z,13864
2017-06-25T07:54:21.061Z,17888
2017-06-25T07:55:06.165Z,20320
2017-06-25T07:57:06.529Z,19008
2017-06-25T07:58:06.549Z,13328
2017-06-25T07:59:06.579Z,11196
2017-06-25T08:00:06.609Z,10632
2017-06-25T08:03:06.681Z,11376
2017-06-25T08:04:21.329Z,10700
2017-06-25T08:05:06.738Z,10276
2017-06-25T08:06:06.765Z,9460
2017-06-25T08:07:06.791Z,8460
2017-06-25T08:08:21.138Z,7644
2017-06-25T08:09:06.848Z,7500
2017-06-25T08:10:06.873Z,7824
2017-06-25T08:11:06.913Z,8624
2017-06-25T08:12:06.928Z,10112
2017-06-25T08:13:06.969Z,12088
2017-06-25T08:14:21.603Z,20032
2017-06-25T08:15:07.010Z,19456
2017-06-25T08:16:07.039Z,20608
2017-06-25T08:18:21.711Z,17888
2017-06-25T08:20:21.767Z,11992
2017-06-25T08:21:07.203Z,10128
2017-06-25T08:22:07.208Z,8676
2017-06-25T08:23:07.237Z,9264
2017-06-25T08:25:07.287Z,7868
2017-06-25T08:26:07.025Z,6792
2017-06-25T08:27:07.341Z,6208
2017-06-25T08:28:07.372Z,5660
2017-06-25T08:29:07.397Z,6092
2017-06-25T08:30:07.427Z,7244
2017-06-25T08:31:21.769Z,6400
2017-06-25T08:32:07.481Z,5424
2017-06-25T08:33:07.508Z,4856
2017-06-25T08:34:07.234Z,5488
2017-06-25T08:35:07.263Z,6580
2017-06-25T08:36:22.211Z,8200
2017-06-25T08:37:07.620Z,8308
2017-06-25T08:38:07.655Z,8892
2017-06-25T08:39:07.681Z,9088
2017-06-25T08:40:07.705Z,7868
2017-06-25T08:41:07.737Z,8812
2017-06-25T08:42:22.376Z,11164
2017-06-25T08:43:07.787Z,10160
2017-06-25T08:45:07.534Z,7660
2017-06-25T08:47:07.892Z,6464
2017-06-25T08:48:07.619Z,5952
2017-06-25T08:49:22.262Z,6008
2017-06-25T08:50:07.677Z,6496
2017-06-25T08:51:07.703Z,7348
2017-06-25T08:52:22.646Z,7908
2017-06-25T08:53:07.757Z,8268
2017-06-25T08:54:07.477Z,8536
2017-06-25T08:55:07.806Z,8352
2017-06-25T08:56:08.145Z,8040
2017-06-25T08:57:08.170Z,8032
2017-06-25T08:58:08.197Z,7980
2017-06-25T08:59:08.224Z,7252
2017-06-25T09:00:08.246Z,6860
2017-06-25T09:01:08.279Z,6316
2017-06-25T09:02:08.303Z,6760
2017-06-25T09:04:08.361Z,8804
2017-06-25T09:05:23.005Z,8296
2017-06-25T09:07:23.065Z,6908
2017-06-25T09:08:08.475Z,7560
2017-06-25T09:09:07.891Z,9452
2017-06-25T09:10:23.145Z,9616
2017-06-25T09:11:08.248Z,11316
2017-06-25T09:12:08.579Z,13320
2017-06-25T09:13:08.605Z,12528
2017-06-25T09:14:08.633Z,14336
2017-06-25T09:15:08.664Z,14856
2017-06-25T09:16:08.384Z,14716
2017-06-25T09:17:08.714Z,15792
2017-06-25T09:18:09.046Z,15420
2017-06-25T09:19:08.778Z,14768
2017-06-25T09:20:08.797Z,14240
2017-06-25T09:22:08.872Z,13108
2017-06-25T09:24:08.933Z,13760
2017-06-25T09:25:08.959Z,13768
2017-06-25T09:26:08.971Z,14676
2017-06-25T09:27:08.998Z,14928
2017-06-25T09:28:09.021Z,14672
2017-06-25T09:29:09.052Z,13464
2017-06-25T09:30:23.699Z,11780
2017-06-25T09:31:09.108Z,10192
2017-06-25T09:32:09.136Z,9152
2017-06-25T09:33:09.163Z,8296
2017-06-25T09:34:09.196Z,8420
2017-06-25T09:35:09.233Z,7472
2017-06-25T09:36:09.254Z,7768
2017-06-25T09:37:09.294Z,8340
2017-06-25T09:38:09.006Z,8224
2017-06-25T09:39:23.955Z,8048
2017-06-25T09:40:09.062Z,8488
2017-06-25T09:41:09.391Z,8300
2017-06-25T09:42:09.419Z,9524
2017-06-25T09:43:09.144Z,10004
2017-06-25T09:44:24.094Z,11216
2017-06-25T09:45:09.507Z,11312
2017-06-25T09:46:09.532Z,11128
2017-06-25T09:47:09.562Z,10104
2017-06-25T09:48:24.202Z,9252
2017-06-25T09:50:09.647Z,7960
2017-06-25T09:51:24.288Z,8356
2017-06-25T09:53:09.722Z,8808
2017-06-25T09:54:09.757Z,9972
2017-06-25T09:55:24.450Z,9364
2017-06-25T09:56:09.818Z,10512
2017-06-25T09:57:09.838Z,9940
2017-06-25T09:58:09.870Z,9580
2017-06-25T09:59:09.898Z,8852
2017-06-25T10:00:24.591Z,8436
2017-06-25T10:01:09.955Z,8500
2017-06-25T10:02:09.977Z,8276
2017-06-25T10:03:10.009Z,9088
2017-06-25T10:04:10.034Z,10408
2017-06-25T10:05:10.061Z,11744
2017-06-25T10:06:10.088Z,12080
2017-06-25T10:07:10.118Z,11776
2017-06-25T10:08:10.144Z,12664
2017-06-25T10:09:10.178Z,14228
2017-06-25T10:10:09.897Z,14540
2017-06-25T10:11:24.543Z,14956
2017-06-25T10:12:10.003Z,15212
2017-06-25T10:13:10.282Z,15908
2017-06-25T10:14:10.061Z,15900
2017-06-25T10:15:10.039Z,15412
2017-06-25T10:16:10.369Z,14484
2017-06-25T10:17:25.016Z,14140
2017-06-25T10:18:10.122Z,15716
2017-06-25T10:19:10.453Z,14748
2017-06-25T10:20:24.797Z,17984
2017-06-25T10:21:25.132Z,16160
2017-06-25T10:22:10.240Z,14496
2017-06-25T10:23:10.569Z,14484
2017-06-25T10:24:10.597Z,15736
2017-06-25T10:25:10.327Z,16544
2017-06-25T10:26:10.660Z,17536
2017-06-25T10:27:25.302Z,17728
2017-06-25T10:28:10.732Z,17760
2017-06-25T10:29:10.440Z,17184
2017-06-25T10:30:10.470Z,18400
2017-06-25T10:31:10.801Z,15696
2017-06-25T10:32:10.527Z,15200
2017-06-25T10:33:10.855Z,14464
2017-06-25T10:34:10.893Z,17952
2017-06-25T10:35:25.534Z,15928
2017-06-25T10:36:25.564Z,14612
2017-06-25T10:37:10.976Z,14068
2017-06-25T10:38:11.001Z,14476
2017-06-25T10:39:10.731Z,14780
2017-06-25T10:40:11.072Z,14112
2017-06-25T10:41:11.097Z,12156
2017-06-25T10:42:25.442Z,11928
2017-06-25T10:44:11.184Z,12260
2017-06-25T10:45:11.216Z,11980
2017-06-25T10:46:11.241Z,11568
2017-06-25T10:47:25.891Z,11636
2017-06-25T10:48:11.298Z,10660
2017-06-25T10:49:11.339Z,11236
2017-06-25T10:50:25.976Z,11836
2017-06-25T10:51:11.089Z,14864
2017-06-25T10:52:11.171Z,12340
2017-06-25T10:53:11.144Z,11356
2017-06-25T10:54:11.206Z,11932
2017-06-25T10:55:26.124Z,9932
2017-06-25T10:56:11.539Z,10272
2017-06-25T10:57:11.565Z,12296
2017-06-25T10:58:11.594Z,12448
2017-06-25T10:59:11.628Z,12076
2017-06-25T11:00:11.653Z,11280
2017-06-25T11:01:11.685Z,14648
2017-06-25T11:02:11.709Z,16800
2017-06-25T11:03:11.736Z,14544
2017-06-25T11:04:11.771Z,11756
2017-06-25T11:05:11.795Z,10960
2017-06-25T11:06:11.824Z,10856
2017-06-25T11:07:11.855Z,10364
2017-06-25T11:08:11.580Z,10620
2017-06-25T11:10:11.643Z,14600
2017-06-25T11:11:11.669Z,17504
2017-06-25T11:12:11.700Z,12900
2017-06-25T11:13:12.033Z,10892
2017-06-25T11:14:26.677Z,11340
2017-06-25T11:15:12.094Z,11824
2017-06-25T11:16:12.120Z,11508
2017-06-25T11:17:11.848Z,13816
2017-06-25T11:18:12.179Z,11988
2017-06-25T11:19:12.206Z,11328
2017-06-25T11:20:26.858Z,11128
2017-06-25T11:21:12.264Z,11184
2017-06-25T11:22:11.994Z,15316
2017-06-25T11:23:12.030Z,9456
2017-06-25T11:24:12.356Z,9068
2017-06-25T11:25:27.006Z,9076
2017-06-25T11:26:12.409Z,11248
2017-06-25T11:27:12.446Z,15056
2017-06-25T11:28:27.108Z,8984
2017-06-25T11:29:12.504Z,8540
2017-06-25T11:30:26.846Z,8620
2017-06-25T11:31:12.563Z,7584
2017-06-25T11:32:12.642Z,6944
2017-06-25T11:33:12.315Z,6468
2017-06-25T11:34:12.650Z,5752
2017-06-25T11:35:12.681Z,5096
2017-06-25T11:36:12.709Z,4840
2017-06-25T11:37:12.738Z,4688
2017-06-25T11:38:12.771Z,4612
2017-06-25T11:39:27.412Z,4864
2017-06-25T11:40:12.527Z,4972
2017-06-25T11:41:27.470Z,5568
2017-06-25T11:42:12.888Z,6048
2017-06-25T11:43:12.916Z,6712
2017-06-25T11:44:12.990Z,8232
2017-06-25T11:45:12.975Z,10152
2017-06-25T11:46:27.311Z,11512
2017-06-25T11:47:13.029Z,11288
2017-06-25T11:48:13.055Z,11208
2017-06-25T11:49:13.083Z,10344
2017-06-25T11:50:13.114Z,11408
2017-06-25T11:51:13.142Z,11912
2017-06-25T11:52:12.871Z,9628
2017-06-25T11:53:13.200Z,9540
2017-06-25T11:54:27.847Z,12452
2017-06-25T11:55:13.310Z,10852
2017-06-25T11:56:13.309Z,11472
2017-06-25T11:57:13.320Z,10168
2017-06-25T11:58:27.963Z,10512
2017-06-25T12:00:13.705Z,10064
2017-06-25T12:01:13.134Z,9328
2017-06-25T12:03:13.189Z,6920
2017-06-25T12:04:13.216Z,5836
2017-06-25T12:05:13.557Z,5664
2017-06-25T12:06:13.577Z,5864
2017-06-25T12:07:13.608Z,5512
2017-06-25T12:08:13.639Z,5044
2017-06-25T12:09:13.360Z,5684
2017-06-25T12:10:28.314Z,5532
2017-06-25T12:11:13.422Z,4384
2017-06-25T12:12:13.754Z,3556
2017-06-25T12:13:13.788Z,3568
2017-06-25T12:14:13.812Z,3040
2017-06-25T12:15:13.845Z,2104
2017-06-25T12:16:13.872Z,1884
2017-06-25T12:17:28.262Z,2300
2017-06-25T12:18:13.980Z,2464
2017-06-25T12:19:13.955Z,3204
2017-06-25T12:20:13.987Z,3520
2017-06-25T12:21:14.035Z,3820
2017-06-25T12:22:28.663Z,3788
2017-06-25T12:23:14.075Z,3816
2017-06-25T12:24:14.100Z,3616
2017-06-25T12:25:14.131Z,2228
2017-06-25T12:26:14.159Z,2008
2017-06-25T12:27:14.182Z,3000
2017-06-25T12:28:28.829Z,5336
2017-06-25T12:29:14.244Z,6040
2017-06-25T12:30:28.887Z,4320
2017-06-25T12:31:14.300Z,3684
2017-06-25T12:32:14.320Z,4780
2017-06-25T12:33:14.359Z,5656
2017-06-25T12:34:14.382Z,6792
2017-06-25T12:35:14.102Z,8052
2017-06-25T12:36:14.435Z,8492
2017-06-25T12:37:14.163Z,8688
2017-06-25T12:38:14.486Z,7460
2017-06-25T12:39:14.518Z,9436
2017-06-25T12:40:29.160Z,11244
2017-06-25T12:41:29.188Z,11444
2017-06-25T12:42:14.598Z,11712
2017-06-25T12:43:14.625Z,11692
2017-06-25T12:44:14.650Z,11928
2017-06-25T12:45:14.685Z,11744
2017-06-25T12:46:29.018Z,11216
2017-06-25T12:47:14.761Z,10948
2017-06-25T12:48:14.760Z,10352
2017-06-25T12:49:29.402Z,9556
2017-06-25T12:50:14.816Z,9404
2017-06-25T12:51:14.843Z,9404
2017-06-25T12:52:14.870Z,9524
2017-06-25T12:53:14.897Z,9536
2017-06-25T12:54:14.920Z,9888
2017-06-25T12:55:15.009Z,10112
2017-06-25T12:56:29.597Z,10300
2017-06-25T12:57:15.007Z,11372
2017-06-25T12:58:29.655Z,11724
2017-06-25T12:59:15.056Z,12660
2017-06-25T13:01:15.114Z,12416
2017-06-25T13:02:15.140Z,11832
2017-06-25T13:03:15.171Z,10392
2017-06-25T13:04:15.197Z,7784
2017-06-25T13:05:29.843Z,6608
2017-06-25T13:06:15.250Z,6084
2017-06-25T13:07:15.278Z,6012
2017-06-25T13:08:15.309Z,5084
2017-06-25T13:09:15.335Z,4384
2017-06-25T13:10:15.362Z,5020
2017-06-25T13:11:15.390Z,3396
2017-06-25T13:12:15.414Z,2632
2017-06-25T13:13:30.062Z,2932
2017-06-25T13:14:15.470Z,3036
2017-06-25T13:15:30.168Z,3292
2017-06-25T13:16:15.575Z,3612
2017-06-25T13:18:15.583Z,4132
2017-06-25T13:20:15.636Z,4696
2017-06-25T13:21:30.278Z,4248
2017-06-25T13:22:15.686Z,3984
2017-06-25T13:23:15.726Z,4688
2017-06-25T13:24:15.742Z,5588
2017-06-25T13:25:15.770Z,6228
2017-06-25T13:26:15.800Z,6260
2017-06-25T13:27:15.822Z,6524
2017-06-25T13:28:15.547Z,8964
2017-06-25T13:29:15.874Z,9884
2017-06-25T13:30:30.215Z,9584
2017-06-25T13:31:15.932Z,9464
2017-06-25T13:32:15.959Z,9048
2017-06-25T13:33:15.985Z,8872
2017-06-25T13:34:16.011Z,9120
2017-06-25T13:35:16.039Z,9320
2017-06-25T13:36:30.683Z,9328
2017-06-25T13:37:30.405Z,8800
2017-06-25T13:38:16.120Z,8708
2017-06-25T13:39:16.143Z,8780
2017-06-25T13:40:16.171Z,8192
2017-06-25T13:41:16.198Z,7396
2017-06-25T13:42:16.228Z,6380
2017-06-25T13:43:16.255Z,5308
2017-06-25T13:44:16.279Z,4612
2017-06-25T13:45:16.310Z,4280
2017-06-25T13:46:16.336Z,3796
2017-06-25T13:47:16.362Z,3320
2017-06-25T13:48:16.397Z,3012
2017-06-25T13:49:16.414Z,2828
2017-06-25T13:50:16.448Z,2732
2017-06-25T13:51:16.470Z,2720
2017-06-25T13:52:31.112Z,2836
2017-06-25T13:53:16.528Z,2912
2017-06-25T13:54:16.552Z,2936
2017-06-25T13:55:16.576Z,2928
2017-06-25T13:56:16.606Z,2856
2017-06-25T13:57:16.634Z,2936
2017-06-25T13:58:16.659Z,3160
2017-06-25T13:59:16.692Z,3420
2017-06-25T14:00:16.419Z,3628
2017-06-25T14:01:16.433Z,3880
2017-06-25T14:02:16.771Z,4060
2017-06-25T14:03:31.407Z,4176
2017-06-25T14:04:31.437Z,4352
2017-06-25T14:05:16.845Z,4416
2017-06-25T14:06:16.569Z,4328
2017-06-25T14:07:16.904Z,4128
2017-06-25T14:08:16.928Z,4040
2017-06-25T14:09:16.651Z,4212
2017-06-25T14:10:16.674Z,4468
2017-06-25T14:11:17.005Z,4844
2017-06-25T14:12:17.031Z,5420
2017-06-25T14:13:17.054Z,5920
2017-06-25T14:14:17.084Z,6704
2017-06-25T14:15:17.113Z,6760
2017-06-25T14:16:17.136Z,8096
2017-06-25T14:17:17.169Z,8040
2017-06-25T14:18:31.809Z,10228
2017-06-25T14:19:17.217Z,9464
2017-06-25T14:20:16.946Z,9068
2017-06-25T14:21:31.889Z,9460
2017-06-25T14:22:17.300Z,11292
2017-06-25T14:23:17.333Z,11720
2017-06-25T14:24:31.968Z,9100
2017-06-25T14:25:17.383Z,10756
2017-06-25T14:26:17.407Z,7960
2017-06-25T14:27:17.439Z,7484